Time;durP1;ratioP1;P1;durP2;ratioP2;P2;SDS_P1;SDS_P2;PMS_P1;PMS_P2;Temp;Humidity;BMP_temperature;BMP_pressure;BME280_temperature;BME280_humidity;BME280_pressure;Samples;Min_cycle;Max_cycle;Signal;HPM_P1;HPM_P2
2022/02/08 00:01:34;;;;;;;14.50;3.90;;;;;;;1.50;79.50;99415.56;430436;1273;142288;-60
2022/02/08 00:11:41;;;;;;;9.30;3.50;;;;;;;1.60;79.37;99429.27;430750;1273;142060;-59
2022/02/08 00:21:47;;;;;;;15.70;5.20;;;;;;;1.62;79.25;99439.20;430209;1273;141626;-60
2022/02/08 00:31:53;;;;;;;12.80;3.60;;;;;;;1.63;79.08;99447.45;430050;1273;170363;-59
2022/02/08 00:42:05;;;;;;;14.80;4.10;;;;;;;1.66;78.89;99461.85;429529;1273;141974;-58
2022/02/08 00:52:15;;;;;;;10.20;3.10;;;;;;;1.71;78.68;99475.34;431618;1273;140725;-59
2022/02/08 01:02:21;;;;;;;13.70;3.50;;;;;;;1.72;78.50;99484.98;430265;1273;141036;-61
2022/02/08 01:12:29;;;;;;;16.70;4.80;;;;;;;1.73;78.58;99504.31;429848;1274;142228;-59
2022/02/08 01:22:39;;;;;;;12.30;3.00;;;;;;;1.69;78.57;99521.66;430774;1273;142666;-59
2022/02/08 01:33:13;;;;;;;15.30;3.30;;;;;;;1.66;78.37;99536.77;430963;1273;141794;-59
2022/02/08 01:43:52;;;;;;;7.80;2.70;;;;;;;1.60;78.30;99549.52;430576;1273;143088;-59
2022/02/08 01:53:58;;;;;;;10.90;3.50;;;;;;;1.53;78.35;99565.40;428500;1276;142148;-59
2022/02/08 02:04:04;;;;;;;17.80;3.90;;;;;;;1.48;78.67;99580.20;429892;1273;141540;-59
2022/02/08 02:14:17;;;;;;;8.10;3.60;;;;;;;1.39;78.69;99592.70;432021;1273;140658;-58
2022/02/08 02:24:24;;;;;;;14.40;2.80;;;;;;;1.21;78.91;99603.67;430923;1274;142270;-59
2022/02/08 02:34:30;;;;;;;15.00;4.30;;;;;;;0.99;79.31;99615.58;431412;1276;139905;-59
2022/02/08 02:44:36;;;;;;;10.70;3.40;;;;;;;0.95;79.53;99630.69;431493;1274;142489;-59
2022/02/08 02:54:42;;;;;;;16.20;4.00;;;;;;;0.92;79.72;99637.98;429620;1275;141294;-58
2022/02/08 03:04:55;;;;;;;16.10;4.00;;;;;;;0.91;79.89;99656.96;434724;1273;141033;-60
2022/02/08 03:25:24;;;;;;;14.70;4.00;;;;;;;0.96;80.11;99700.47;432595;1274;141252;-59
2022/02/08 03:35:30;;;;;;;17.30;4.90;;;;;;;1.01;80.32;99711.91;430909;1273;141466;-59
2022/02/08 03:45:36;;;;;;;11.60;3.70;;;;;;;1.01;80.25;99735.86;429339;1274;141962;-60
2022/02/08 03:55:42;;;;;;;15.00;4.30;;;;;;;0.99;80.15;99744.88;432524;1274;140755;-58
2022/02/08 04:05:51;;;;;;;7.90;3.50;;;;;;;1.02;80.31;99751.55;430869;1273;142935;-58
2022/02/08 04:16:07;;;;;;;9.60;4.60;;;;;;;0.98;80.01;99765.58;433567;1273;141816;-60
2022/02/08 04:47:14;;;;;;;10.40;2.70;;;;;;;0.83;80.33;99786.08;429453;1273;141123;-60
2022/02/08 04:57:26;;;;;;;16.10;3.70;;;;;;;0.81;80.40;99802.31;430130;1273;142225;-59
2022/02/08 05:29:26;;;;;;;14.50;4.20;;;;;;;0.97;80.21;99837.32;431000;1273;141188;-59
2022/02/08 05:49:41;;;;;;;14.50;4.50;;;;;;;0.73;80.42;99855.37;431163;1273;141082;-59
2022/02/08 05:59:48;;;;;;;12.50;3.80;;;;;;;0.67;80.67;99867.04;430976;1273;145456;-59
2022/02/08 06:09:56;;;;;;;7.90;3.70;;;;;;;0.74;80.81;99875.52;430850;1273;141602;-59
2022/02/08 06:20:01;;;;;;;13.10;4.40;;;;;;;0.77;80.91;99876.84;429749;1273;141050;-58
2022/02/08 06:30:10;;;;;;;12.50;4.30;;;;;;;0.79;80.88;99879.22;430114;1273;142692;-59
2022/02/08 06:40:16;;;;;;;13.20;4.60;;;;;;;0.89;80.91;99895.58;431313;1273;142017;-58
2022/02/08 06:50:22;;;;;;;16.90;4.00;;;;;;;0.97;80.80;99908.88;429735;1273;141408;-60
2022/02/08 07:00:32;;;;;;;11.70;4.50;;;;;;;1.00;80.61;99912.95;429921;1273;144497;-61
2022/02/08 07:10:42;;;;;;;10.30;3.00;;;;;;;0.99;80.72;99916.25;430470;1273;141096;-59
2022/02/08 07:20:48;;;;;;;13.10;4.20;;;;;;;1.05;80.74;99921.65;441189;1273;142356;-59
2022/02/08 07:31:00;;;;;;;8.60;4.70;;;;;;;1.16;80.64;99917.30;435698;1273;141669;-59
2022/02/08 07:51:31;;;;;;;11.20;3.70;;;;;;;1.56;80.04;99911.83;439182;1273;141685;-59
2022/02/08 08:01:37;;;;;;;16.30;4.70;;;;;;;1.62;80.15;99910.65;436243;1273;142055;-58
2022/02/08 08:11:45;;;;;;;12.30;4.30;;;;;;;1.71;80.19;99905.97;439839;1272;146284;-57
2022/02/08 08:21:51;;;;;;;15.00;5.00;;;;;;;1.78;79.97;99911.86;442350;1272;145468;-65
2022/02/08 08:31:58;;;;;;;14.50;6.80;;;;;;;2.37;80.05;99911.66;436225;1271;141746;-61
2022/02/08 08:42:24;;;;;;;13.20;3.80;;;;;;;2.88;79.07;99906.90;441477;1271;142710;-64
2022/02/08 08:52:34;;;;;;;13.90;3.80;;;;;;;4.29;79.25;99892.67;437627;1272;140852;-65
2022/02/08 09:02:41;;;;;;;12.60;3.70;;;;;;;7.76;74.85;99889.61;433080;1271;140030;-68
2022/02/08 09:13:07;;;;;;;11.50;3.80;;;;;;;8.87;71.17;99877.89;435995;1272;141200;-61
2022/02/08 09:23:38;;;;;;;7.90;3.30;;;;;;;7.57;70.30;99878.85;431972;1273;141652;-63
2022/02/08 09:33:44;;;;;;;11.50;3.50;;;;;;;6.57;70.08;99881.34;441863;1271;142663;-63
2022/02/08 09:43:51;;;;;;;9.10;3.10;;;;;;;5.25;70.96;99878.39;437317;1272;147299;-63
2022/02/08 09:54:01;;;;;;;9.30;3.60;;;;;;;4.47;72.11;99861.74;437169;1271;142377;-62
2022/02/08 10:04:07;;;;;;;9.70;2.90;;;;;;;4.40;72.64;99841.85;435437;1271;141515;-60
2022/02/08 10:14:21;;;;;;;7.40;3.30;;;;;;;4.63;72.76;99821.48;433680;1271;141234;-59
2022/02/08 10:24:32;;;;;;;7.40;2.90;;;;;;;4.88;72.52;99808.42;436787;1271;142688;-60
2022/02/08 10:45:02;;;;;;;13.40;4.90;;;;;;;4.76;72.12;99784.95;438922;1271;143126;-65
2022/02/08 10:55:19;;;;;;;17.00;4.60;;;;;;;4.89;71.61;99763.65;437323;1271;143303;-63
2022/02/08 11:05:37;;;;;;;7.10;3.50;;;;;;;5.06;71.49;99753.81;432089;1271;141475;-70
2022/02/08 11:15:48;;;;;;;10.00;3.80;;;;;;;4.94;70.43;99728.60;432713;1273;206222;-62
2022/02/08 11:25:59;;;;;;;9.30;3.30;;;;;;;4.62;70.79;99723.20;431988;1271;156870;-64
2022/02/08 11:46:49;;;;;;;3.20;2.20;;;;;;;4.78;70.39;99670.91;431119;1272;141367;-65
2022/02/08 12:07:22;;;;;;;7.80;2.90;;;;;;;4.89;69.73;99648.97;431759;1273;141484;-60
2022/02/08 12:59:44;;;;;;;8.40;4.60;;;;;;;2.93;76.53;99620.56;430875;1273;141109;-61
2022/02/08 14:02:38;;;;;;;16.40;8.20;;;;;;;2.70;79.96;99574.61;432783;1273;142077;-59
2022/02/08 14:13:28;;;;;;;13.30;7.80;;;;;;;2.63;80.67;99564.80;430917;1274;142055;-61
2022/02/08 14:23:53;;;;;;;15.80;7.70;;;;;;;2.57;81.33;99544.44;430837;1273;141930;-63
2022/02/08 14:34:28;;;;;;;10.60;7.60;;;;;;;2.55;81.91;99540.88;430973;1272;142175;-62
2022/02/08 15:05:42;;;;;;;10.20;7.40;;;;;;;2.46;84.04;99507.44;433064;1271;141046;-62
2022/02/08 15:16:15;;;;;;;8.60;5.40;;;;;;;2.54;84.67;99515.33;431535;1269;142441;-62
2022/02/08 15:26:21;;;;;;;7.50;5.80;;;;;;;2.65;85.34;99506.31;430623;1271;142089;-60
2022/02/08 15:36:27;;;;;;;5.30;4.00;;;;;;;2.78;85.81;99504.69;432678;1271;141109;-61
2022/02/08 15:46:34;;;;;;;4.30;3.90;;;;;;;2.87;86.30;99502.64;433727;1271;141000;-66
2022/02/08 16:07:12;;;;;;;3.20;2.80;;;;;;;3.03;86.94;99478.27;433289;1273;142140;-64
2022/02/08 16:17:29;;;;;;;5.30;3.50;;;;;;;3.09;86.92;99476.16;432272;1272;141462;-65
2022/02/08 16:27:47;;;;;;;4.60;3.80;;;;;;;3.17;87.56;99475.89;430151;1273;145858;-65
2022/02/08 16:58:46;;;;;;;5.10;4.50;;;;;;;3.37;88.10;99473.95;432385;1271;141532;-65
2022/02/08 17:08:59;;;;;;;5.70;5.00;;;;;;;3.45;88.39;99469.16;443541;1271;143262;-63
2022/02/08 17:50:19;;;;;;;8.80;7.70;;;;;;;3.94;89.09;99471.67;437937;1271;140844;-65
2022/02/08 18:00:25;;;;;;;8.30;7.30;;;;;;;4.03;89.60;99490.56;435266;1272;144051;-64
2022/02/08 18:10:31;;;;;;;10.70;9.00;;;;;;;4.11;89.75;99481.27;435151;1271;141191;-65
2022/02/08 18:20:44;;;;;;;10.10;9.10;;;;;;;4.20;89.63;99489.61;433390;1271;141931;-66
2022/02/08 19:12:29;;;;;;;10.60;9.50;;;;;;;4.56;90.33;99530.45;430501;1271;141204;-66
2022/02/08 19:22:36;;;;;;;10.30;9.20;;;;;;;4.63;90.61;99540.05;431997;1271;142999;-66
2022/02/08 19:32:42;;;;;;;11.90;10.20;;;;;;;4.68;90.39;99539.50;432446;1271;142297;-65
2022/02/08 19:42:48;;;;;;;11.50;10.30;;;;;;;4.73;90.46;99546.59;431133;1271;141210;-65
2022/02/08 19:52:55;;;;;;;11.70;10.60;;;;;;;4.74;90.61;99553.83;431541;1271;140740;-66
2022/02/08 20:03:03;;;;;;;10.50;9.40;;;;;;;4.79;90.67;99565.10;431331;1271;141129;-66
2022/02/08 20:13:10;;;;;;;9.50;8.70;;;;;;;4.85;90.68;99584.10;431252;1271;141937;-66
2022/02/08 20:23:17;;;;;;;8.00;7.20;;;;;;;4.89;90.79;99596.95;432252;1270;141921;-67
2022/02/08 20:33:24;;;;;;;8.40;7.40;;;;;;;4.94;90.98;99601.77;431521;1271;142501;-67
2022/02/08 20:43:34;;;;;;;9.30;7.60;;;;;;;4.97;90.94;99616.23;433389;1270;141355;-66
2022/02/08 20:53:46;;;;;;;8.60;7.60;;;;;;;5.01;91.08;99626.29;431788;1271;143346;-67
2022/02/08 21:03:59;;;;;;;8.10;7.40;;;;;;;5.02;90.94;99642.75;431713;1271;140878;-66
2022/02/08 21:14:06;;;;;;;8.30;6.90;;;;;;;5.04;90.84;99661.06;430798;1271;142408;-66
2022/02/08 21:24:14;;;;;;;6.30;5.40;;;;;;;5.07;90.59;99667.86;430823;1271;163528;-67
2022/02/08 21:55:10;;;;;;;4.70;4.10;;;;;;;4.93;89.86;99706.27;432156;1270;141999;-65
2022/02/08 22:05:16;;;;;;;5.40;3.60;;;;;;;4.82;88.89;99709.78;431131;1271;141664;-65
2022/02/08 22:26:00;;;;;;;4.70;2.90;;;;;;;4.68;88.50;99743.09;431677;1271;141301;-62
2022/02/08 22:36:16;;;;;;;8.70;3.40;;;;;;;4.70;88.23;99767.28;430955;1270;143498;-62
2022/02/08 22:46:22;;;;;;;3.80;3.20;;;;;;;4.60;88.31;99771.30;431117;1270;141340;-62
2022/02/08 22:56:30;;;;;;;4.10;2.60;;;;;;;4.65;88.36;99778.59;430228;1271;142281;-63
2022/02/08 23:06:35;;;;;;;5.70;3.40;;;;;;;4.54;88.13;99798.73;429744;1273;141882;-61
2022/02/08 23:16:47;;;;;;;3.90;3.50;;;;;;;4.49;88.41;99816.95;430462;1270;142344;-62
2022/02/08 23:37:16;;;;;;;5.50;3.60;;;;;;;3.95;88.37;99846.30;430192;1271;147025;-63
2022/02/08 23:47:31;;;;;;;6.00;3.20;;;;;;;3.63;88.43;99857.84;430316;1271;142140;-63
2022/02/08 23:57:37;;;;;;;5.70;3.90;;;;;;;3.43;88.67;99869.56;430242;1271;142649;-61
